createdAt,value
2022-08-08T00:01:08.774Z,2.10
2022-08-08T00:03:54.869Z,2.40
2022-08-08T00:06:35.571Z,2.40
2022-08-08T00:09:11.989Z,2.60
2022-08-08T00:12:03.308Z,2.30
2022-08-08T00:14:56.858Z,2.30
2022-08-08T00:18:01.699Z,2.30
2022-08-08T00:20:38.466Z,2.50
2022-08-08T00:23:11.922Z,2.40
2022-08-08T00:25:50.958Z,2.60
2022-08-08T00:28:35.386Z,2.70
2022-08-08T00:32:29.069Z,2.40
2022-08-08T00:34:35.004Z,2.50
2022-08-08T00:37:16.495Z,2.50
2022-08-08T00:41:10.329Z,2.70
2022-08-08T00:43:56.321Z,2.70
2022-08-08T00:47:01.994Z,2.40
2022-08-08T00:50:10.149Z,2.50
2022-08-08T00:52:48.734Z,2.50
2022-08-08T00:55:53.001Z,2.50
2022-08-08T00:58:54.799Z,2.40
2022-08-08T01:01:38.452Z,2.40
2022-08-08T01:04:55.500Z,2.50
2022-08-08T01:07:54.896Z,2.30
2022-08-08T01:10:59.843Z,2.50
2022-08-08T01:14:13.559Z,2.40
2022-08-08T01:17:08.267Z,2.50
2022-08-08T01:24:05.842Z,2.40
2022-08-08T01:26:51.263Z,2.40
2022-08-08T01:29:59.490Z,2.40
2022-08-08T01:33:02.003Z,2.50
2022-08-08T01:36:18.235Z,2.60
2022-08-08T01:39:23.391Z,2.50
2022-08-08T01:42:02.207Z,2.30
2022-08-08T01:44:53.168Z,2.60
2022-08-08T01:48:14.873Z,2.70
2022-08-08T01:50:42.744Z,2.50
2022-08-08T01:55:16.513Z,2.20
2022-08-08T01:56:30.416Z,2.40
2022-08-08T01:59:38.312Z,2.80
2022-08-08T02:02:34.323Z,2.60
2022-08-08T02:05:33.988Z,2.70
2022-08-08T02:08:21.903Z,2.50
2022-08-08T02:11:04.968Z,2.60
2022-08-08T02:13:54.141Z,2.60
2022-08-08T02:16:29.149Z,2.40
2022-08-08T02:19:41.560Z,2.30
2022-08-08T02:22:28.334Z,2.70
2022-08-08T02:25:11.767Z,2.90
2022-08-08T02:27:50.022Z,2.30
2022-08-08T02:30:25.702Z,2.50
2022-08-08T02:33:24.146Z,2.20
2022-08-08T02:36:30.515Z,2.40
2022-08-08T02:39:40.451Z,2.30
2022-08-08T02:42:38.141Z,2.60
2022-08-08T02:45:54.068Z,2.30
2022-08-08T02:48:50.407Z,2.70
2022-08-08T02:51:59.607Z,2.70
2022-08-08T02:54:44.541Z,2.60
2022-08-08T02:57:57.457Z,2.60
2022-08-08T03:00:58.774Z,2.50
2022-08-08T03:05:02.648Z,2.70
2022-08-08T03:07:41.907Z,2.60
2022-08-08T03:11:13.747Z,2.90
2022-08-08T03:17:03.436Z,2.50
2022-08-08T03:20:05.137Z,2.90
2022-08-08T03:22:47.312Z,2.50
2022-08-08T03:25:18.588Z,2.70
2022-08-08T03:27:57.310Z,2.70
2022-08-08T03:30:27.601Z,2.70
2022-08-08T03:33:56.196Z,2.60
2022-08-08T03:36:04.559Z,2.60
2022-08-08T03:38:55.096Z,2.80
2022-08-08T03:42:11.704Z,2.60
2022-08-08T03:44:25.614Z,2.50
2022-08-08T03:46:54.960Z,2.50
2022-08-08T03:49:59.115Z,2.70
2022-08-08T03:52:16.314Z,2.40
2022-08-08T03:55:02.545Z,2.80
2022-08-08T03:58:31.632Z,2.50
2022-08-08T04:00:25.962Z,2.60
2022-08-08T04:03:01.182Z,2.70
2022-08-08T04:05:32.024Z,2.70
2022-08-08T04:08:07.895Z,2.60
2022-08-08T04:10:37.072Z,2.80
2022-08-08T04:13:18.218Z,2.90
2022-08-08T04:15:55.174Z,2.80
2022-08-08T04:18:44.637Z,3.00
2022-08-08T04:21:14.598Z,2.80
2022-08-08T04:24:11.935Z,2.60
2022-08-08T04:26:56.668Z,2.90
2022-08-08T04:29:25.959Z,2.50
2022-08-08T04:32:00.680Z,2.80
2022-08-08T04:34:32.443Z,2.90
2022-08-08T04:37:18.693Z,2.80
2022-08-08T04:40:06.115Z,2.60
2022-08-08T04:42:37.300Z,3.50
2022-08-08T04:45:08.135Z,2.60
2022-08-08T04:47:46.302Z,3.00
2022-08-08T04:50:25.214Z,2.90
2022-08-08T04:53:00.564Z,3.00
2022-08-08T04:55:47.828Z,2.60
2022-08-08T04:58:22.519Z,3.00
2022-08-08T05:00:52.218Z,2.30
2022-08-08T05:04:09.710Z,2.90
2022-08-08T05:06:13.439Z,2.80
2022-08-08T05:08:43.406Z,2.40
2022-08-08T05:11:17.229Z,2.40
2022-08-08T05:13:57.809Z,3.00
2022-08-08T05:16:54.353Z,2.70
2022-08-08T05:20:09.391Z,2.70
2022-08-08T05:22:08.174Z,3.20
2022-08-08T05:24:37.768Z,2.90
2022-08-08T05:27:06.966Z,2.60
2022-08-08T05:29:37.291Z,2.90
2022-08-08T05:32:13.073Z,2.90
2022-08-08T05:34:50.254Z,3.40
2022-08-08T05:37:28.408Z,2.60
2022-08-08T05:40:14.692Z,2.80
2022-08-08T05:42:49.181Z,2.80
2022-08-08T05:45:25.725Z,3.00
2022-08-08T05:48:08.955Z,2.60
2022-08-08T05:50:38.751Z,2.80
2022-08-08T05:53:53.918Z,3.00
2022-08-08T05:56:09.597Z,2.70
2022-08-08T05:58:57.149Z,2.70
2022-08-08T06:01:52.604Z,3.00
2022-08-08T06:04:23.397Z,2.80
2022-08-08T06:06:56.725Z,3.00
2022-08-08T06:09:58.520Z,2.80
2022-08-08T06:12:29.654Z,2.80
2022-08-08T06:15:03.248Z,2.80
2022-08-08T06:17:51.632Z,2.70
2022-08-08T06:20:25.851Z,2.80
2022-08-08T06:22:56.296Z,3.10
2022-08-08T06:26:34.816Z,3.00
2022-08-08T06:28:18.485Z,2.80
2022-08-08T06:30:51.298Z,2.70
2022-08-08T06:33:37.339Z,2.50
2022-08-08T06:36:21.181Z,2.70
2022-08-08T06:38:54.228Z,2.90
2022-08-08T06:41:26.269Z,2.50
2022-08-08T06:44:03.744Z,2.90
2022-08-08T06:46:36.178Z,3.20
2022-08-08T06:49:05.777Z,2.70
2022-08-08T06:51:52.658Z,2.70
2022-08-08T06:54:27.652Z,3.00
2022-08-08T06:56:55.898Z,2.50
2022-08-08T06:59:24.442Z,2.60
2022-08-08T07:02:28.070Z,2.80
2022-08-08T07:04:54.935Z,2.60
2022-08-08T07:07:39.996Z,2.90
2022-08-08T07:10:12.451Z,2.90
2022-08-08T07:12:48.069Z,3.20
2022-08-08T07:16:03.907Z,3.00
2022-08-08T07:18:41.024Z,3.10
2022-08-08T07:21:20.614Z,2.80
2022-08-08T07:24:03.629Z,3.50
2022-08-08T07:26:40.370Z,2.80
2022-08-08T07:31:48.887Z,2.60
2022-08-08T07:34:20.246Z,2.90
2022-08-08T07:37:11.800Z,2.70
2022-08-08T07:39:45.740Z,3.10
2022-08-08T07:42:32.936Z,2.90
2022-08-08T07:45:02.413Z,2.90
2022-08-08T07:47:39.311Z,3.00
2022-08-08T07:50:10.851Z,2.90
2022-08-08T07:52:44.369Z,3.20
2022-08-08T07:55:23.373Z,3.50
2022-08-08T07:58:13.345Z,2.90
2022-08-08T08:00:48.689Z,2.80
2022-08-08T08:03:23.850Z,2.90
2022-08-08T08:05:59.423Z,2.90
2022-08-08T08:08:37.540Z,2.60
2022-08-08T08:11:15.143Z,2.90
2022-08-08T08:14:07.798Z,2.90
2022-08-08T08:16:41.131Z,3.00
2022-08-08T08:19:12.582Z,2.90
2022-08-08T08:21:56.916Z,3.10
2022-08-08T08:24:46.984Z,3.20
2022-08-08T08:27:17.750Z,3.20
2022-08-08T08:32:35.910Z,3.30
2022-08-08T08:35:09.611Z,3.10
2022-08-08T08:38:05.541Z,3.20
2022-08-08T08:40:28.035Z,3.20
2022-08-08T08:42:58.380Z,2.90
2022-08-08T08:45:30.860Z,3.10
2022-08-08T08:48:02.216Z,3.00
2022-08-08T08:50:36.339Z,3.40
2022-08-08T08:53:55.508Z,3.20
2022-08-08T08:56:13.200Z,3.00
2022-08-08T08:58:49.941Z,3.20
2022-08-08T09:01:26.368Z,3.30
2022-08-08T09:04:02.272Z,3.20
2022-08-08T09:06:40.534Z,3.40
2022-08-08T09:09:39.054Z,3.40
2022-08-08T09:12:20.034Z,3.20
2022-08-08T09:14:51.551Z,3.40
2022-08-08T09:17:41.155Z,3.20
2022-08-08T09:22:02.127Z,3.70
2022-08-08T09:23:03.806Z,3.10
2022-08-08T09:26:00.601Z,3.30
2022-08-08T09:28:37.818Z,3.50
2022-08-08T09:31:15.261Z,3.40
2022-08-08T09:34:06.251Z,3.90
2022-08-08T09:36:51.872Z,4.00
2022-08-08T09:39:42.477Z,3.80
2022-08-08T09:42:21.698Z,3.70
2022-08-08T09:48:09.754Z,3.30
2022-08-08T09:50:34.697Z,3.00
2022-08-08T09:53:23.472Z,3.30
2022-08-08T09:56:04.920Z,3.60
2022-08-08T09:58:41.406Z,3.70
2022-08-08T10:02:00.023Z,3.50
2022-08-08T10:04:35.458Z,3.60
2022-08-08T10:07:07.418Z,3.60
2022-08-08T10:09:58.778Z,3.20
2022-08-08T10:12:38.392Z,3.30
2022-08-08T10:15:24.413Z,3.30
2022-08-08T10:18:06.408Z,3.60
2022-08-08T10:20:51.503Z,3.30
2022-08-08T10:23:41.850Z,3.70
2022-08-08T10:26:29.866Z,3.20
2022-08-08T10:29:04.733Z,3.70
2022-08-08T10:31:52.611Z,3.60
2022-08-08T10:34:25.235Z,3.40
2022-08-08T10:36:56.387Z,3.30
2022-08-08T10:39:31.512Z,3.40
2022-08-08T10:42:16.251Z,3.10
2022-08-08T10:44:46.030Z,2.80
2022-08-08T10:47:21.089Z,3.40
2022-08-08T10:50:01.266Z,3.40
2022-08-08T10:52:34.045Z,3.80
2022-08-08T10:55:40.547Z,3.40
2022-08-08T10:58:07.070Z,3.00
2022-08-08T11:00:53.605Z,3.10
2022-08-08T11:04:00.607Z,3.20
2022-08-08T11:06:31.934Z,3.50
2022-08-08T11:09:09.695Z,3.20
2022-08-08T11:12:06.286Z,3.40
2022-08-08T11:14:34.730Z,3.30
2022-08-08T11:17:05.708Z,3.00
2022-08-08T11:19:35.383Z,3.50
2022-08-08T11:22:05.602Z,3.30
2022-08-08T11:30:18.550Z,3.10
2022-08-08T11:32:40.457Z,2.90
2022-08-08T11:35:24.958Z,3.10
2022-08-08T11:38:39.481Z,3.10
2022-08-08T11:40:52.413Z,3.20
2022-08-08T11:43:24.384Z,3.20
2022-08-08T11:46:11.726Z,3.20
2022-08-08T11:48:41.769Z,3.30
2022-08-08T11:51:30.445Z,3.70
2022-08-08T11:54:27.466Z,3.40
2022-08-08T11:56:56.548Z,3.20
2022-08-08T11:59:58.812Z,3.30
2022-08-08T12:02:41.248Z,3.70
2022-08-08T12:05:13.098Z,3.30
2022-08-08T12:07:51.599Z,3.50
2022-08-08T12:10:21.984Z,3.10
2022-08-08T12:12:59.458Z,3.40
2022-08-08T12:15:29.883Z,3.00
2022-08-08T12:17:57.675Z,3.20
2022-08-08T12:20:38.742Z,3.00
2022-08-08T12:23:06.540Z,3.30
2022-08-08T12:25:44.968Z,3.30
2022-08-08T12:28:21.785Z,3.20
2022-08-08T12:30:50.410Z,3.00
2022-08-08T12:33:37.012Z,3.50
2022-08-08T12:36:11.979Z,3.10
2022-08-08T12:38:49.341Z,3.40
2022-08-08T12:41:33.694Z,3.60
2022-08-08T12:44:09.021Z,3.50
2022-08-08T12:46:37.236Z,3.20
2022-08-08T12:49:29.601Z,3.20
2022-08-08T12:51:59.993Z,3.10
2022-08-08T12:54:33.444Z,3.20
2022-08-08T12:57:17.268Z,3.40
2022-08-08T13:00:04.400Z,3.00
2022-08-08T13:02:51.702Z,3.10
2022-08-08T13:05:26.222Z,3.20
2022-08-08T13:08:19.753Z,3.00
2022-08-08T13:10:56.313Z,2.80
2022-08-08T13:13:35.293Z,3.30
2022-08-08T13:16:19.424Z,2.90
2022-08-08T13:18:57.024Z,3.00
2022-08-08T13:21:36.549Z,2.80
2022-08-08T13:24:36.854Z,2.80
2022-08-08T13:27:11.731Z,3.10
2022-08-08T13:29:50.739Z,2.80
2022-08-08T13:32:26.943Z,2.80
2022-08-08T13:34:56.961Z,2.80
2022-08-08T13:40:17.990Z,3.10
2022-08-08T13:42:55.984Z,3.00
2022-08-08T13:45:25.781Z,3.20
2022-08-08T13:47:58.434Z,2.90
2022-08-08T13:50:35.237Z,3.00
2022-08-08T13:53:25.221Z,2.90
2022-08-08T13:56:02.096Z,2.90
2022-08-08T13:58:30.450Z,3.10
2022-08-08T14:00:58.385Z,2.90
2022-08-08T14:03:52.432Z,3.00
2022-08-08T14:06:32.294Z,2.80
2022-08-08T14:09:24.259Z,3.10
2022-08-08T14:11:50.659Z,3.10
2022-08-08T14:14:20.935Z,2.80
2022-08-08T14:16:55.280Z,2.70
2022-08-08T14:19:57.448Z,3.20
2022-08-08T14:22:25.561Z,3.10
2022-08-08T14:24:56.053Z,3.10
2022-08-08T14:27:33.204Z,2.90
2022-08-08T14:30:16.939Z,3.00
2022-08-08T14:32:47.599Z,3.20
2022-08-08T14:35:24.809Z,3.30
2022-08-08T14:38:32.977Z,2.80
2022-08-08T14:40:59.383Z,3.10
2022-08-08T14:44:01.715Z,3.20
2022-08-08T14:46:18.154Z,2.90
2022-08-08T14:48:56.948Z,3.00
2022-08-08T14:51:31.137Z,3.10
2022-08-08T14:54:28.381Z,3.10
2022-08-08T14:56:58.166Z,2.70
2022-08-08T14:59:43.656Z,3.20
2022-08-08T15:02:21.071Z,2.90
2022-08-08T15:04:53.548Z,3.10
2022-08-08T15:07:24.409Z,2.80
2022-08-08T15:10:10.053Z,2.90
2022-08-08T15:12:39.399Z,3.10
2022-08-08T15:17:38.924Z,2.80
2022-08-08T15:20:13.943Z,2.90
2022-08-08T15:22:44.666Z,2.90
2022-08-08T15:25:17.583Z,3.10
2022-08-08T15:28:04.979Z,3.20
2022-08-08T15:30:45.917Z,3.10
2022-08-08T15:33:35.122Z,2.90
2022-08-08T15:36:05.456Z,2.90
2022-08-08T15:38:34.068Z,3.00
2022-08-08T15:41:01.929Z,3.20
2022-08-08T15:43:35.754Z,2.90
2022-08-08T15:46:04.857Z,3.10
2022-08-08T15:48:32.780Z,3.00
2022-08-08T15:51:07.045Z,2.90
2022-08-08T15:53:40.499Z,3.00
2022-08-08T15:56:19.930Z,3.40
2022-08-08T15:58:49.036Z,3.30
2022-08-08T16:01:18.289Z,3.30
2022-08-08T16:03:52.002Z,2.90
2022-08-08T16:06:28.860Z,3.00
2022-08-08T16:13:00.542Z,3.20
2022-08-08T16:13:09.904Z,2.90
2022-08-08T16:14:36.355Z,3.00
2022-08-08T16:17:05.878Z,3.20
2022-08-08T16:19:59.917Z,3.10
2022-08-08T16:22:30.448Z,3.00
2022-08-08T16:24:58.998Z,2.90
2022-08-08T16:27:34.794Z,2.80
2022-08-08T16:30:13.607Z,3.20
2022-08-08T16:32:42.701Z,3.10
2022-08-08T16:35:10.724Z,3.30
2022-08-08T16:37:46.559Z,3.30
2022-08-08T16:40:19.681Z,3.10
2022-08-08T16:42:51.634Z,3.10
2022-08-08T16:46:42.971Z,3.50
2022-08-08T16:48:13.320Z,3.30
2022-08-08T16:50:41.513Z,3.00
2022-08-08T16:55:00.888Z,3.10
2022-08-08T16:56:01.980Z,3.30
2022-08-08T16:58:35.328Z,3.40
2022-08-08T17:01:05.679Z,2.90
2022-08-08T17:03:58.898Z,3.40
2022-08-08T17:06:36.465Z,3.40
2022-08-08T17:09:07.655Z,3.30
2022-08-08T17:11:48.461Z,3.00
2022-08-08T17:14:27.098Z,3.40
2022-08-08T17:16:58.832Z,3.50
2022-08-08T17:19:37.308Z,3.40
2022-08-08T17:22:09.155Z,3.70
2022-08-08T17:24:37.192Z,3.20
2022-08-08T17:27:05.864Z,3.60
2022-08-08T17:29:36.510Z,3.50
2022-08-08T17:32:11.488Z,3.10
2022-08-08T17:34:54.789Z,3.40
2022-08-08T17:37:27.646Z,3.00
2022-08-08T17:40:10.974Z,3.40
2022-08-08T17:42:46.829Z,3.30
2022-08-08T17:45:23.678Z,3.30
2022-08-08T17:47:53.962Z,3.70
2022-08-08T17:50:24.021Z,3.00
2022-08-08T17:52:52.763Z,3.60
2022-08-08T17:56:05.260Z,3.50
2022-08-08T17:58:11.103Z,3.30
2022-08-08T18:00:41.352Z,3.50
2022-08-08T18:03:13.600Z,3.00
2022-08-08T18:05:48.265Z,3.30
2022-08-08T18:08:37.477Z,3.30
2022-08-08T18:11:14.989Z,3.00
2022-08-08T18:13:46.473Z,3.20
2022-08-08T18:16:16.937Z,3.10
2022-08-08T18:18:52.439Z,3.40
2022-08-08T18:21:35.199Z,3.10
2022-08-08T18:24:17.562Z,3.70
2022-08-08T18:26:54.772Z,3.70
2022-08-08T18:29:29.485Z,3.50
2022-08-08T18:32:03.357Z,3.50
2022-08-08T18:34:33.606Z,3.30
2022-08-08T18:37:04.866Z,3.30
2022-08-08T18:39:36.659Z,3.30
2022-08-08T18:42:13.026Z,3.20
2022-08-08T18:44:55.961Z,3.40
2022-08-08T18:47:26.401Z,3.80
2022-08-08T18:49:58.774Z,3.00
2022-08-08T18:52:33.199Z,3.40
2022-08-08T18:55:09.681Z,3.20
2022-08-08T18:57:45.231Z,3.20
2022-08-08T19:00:19.822Z,3.10
2022-08-08T19:02:55.930Z,3.00
2022-08-08T19:05:32.227Z,3.30
2022-08-08T19:08:24.773Z,3.20
2022-08-08T19:10:59.158Z,3.50
2022-08-08T19:13:53.909Z,3.20
2022-08-08T19:16:19.121Z,3.40
2022-08-08T19:18:53.354Z,3.30
2022-08-08T19:21:30.058Z,3.40
2022-08-08T19:24:05.491Z,3.50
2022-08-08T19:26:35.491Z,3.50
2022-08-08T19:29:06.965Z,3.40
2022-08-08T19:31:36.032Z,3.80
2022-08-08T19:34:35.837Z,3.20
2022-08-08T19:36:55.207Z,3.40
2022-08-08T19:39:23.941Z,4.00
2022-08-08T19:41:51.765Z,3.60
2022-08-08T19:44:42.489Z,3.10
2022-08-08T19:47:08.671Z,3.40
2022-08-08T19:49:37.706Z,2.90
2022-08-08T19:52:07.387Z,3.40
2022-08-08T19:54:38.502Z,3.20
2022-08-08T19:57:07.646Z,3.70
2022-08-08T19:59:38.629Z,3.50
2022-08-08T20:02:07.830Z,3.60
2022-08-08T20:04:38.715Z,3.50
2022-08-08T20:08:28.279Z,3.60
2022-08-08T20:09:57.159Z,3.50
2022-08-08T20:12:31.939Z,3.70
2022-08-08T20:15:09.784Z,4.00
2022-08-08T20:17:46.726Z,4.10
2022-08-08T20:20:19.101Z,4.00
2022-08-08T20:22:54.239Z,3.60
2022-08-08T20:25:29.908Z,3.90
2022-08-08T20:28:06.936Z,3.50
2022-08-08T20:30:56.353Z,3.40
2022-08-08T20:33:29.301Z,3.90
2022-08-08T20:36:17.259Z,3.50
2022-08-08T20:38:50.513Z,3.00
2022-08-08T20:41:19.292Z,3.30
2022-08-08T20:43:49.501Z,3.40
2022-08-08T20:46:20.799Z,3.50
2022-08-08T20:51:20.917Z,3.40
2022-08-08T20:53:59.862Z,3.90
2022-08-08T20:56:35.303Z,3.70
2022-08-08T20:59:06.240Z,3.60
2022-08-08T21:01:44.150Z,3.50
2022-08-08T21:04:27.621Z,3.60
2022-08-08T21:06:55.742Z,3.80
2022-08-08T21:09:24.197Z,3.60
2022-08-08T21:12:02.690Z,3.50
2022-08-08T21:14:34.350Z,3.40
2022-08-08T21:17:05.994Z,3.50
2022-08-08T21:19:46.132Z,3.30
2022-08-08T21:22:15.879Z,3.40
2022-08-08T21:24:52.662Z,3.20
2022-08-08T21:28:06.187Z,3.90
2022-08-08T21:30:19.330Z,3.40
2022-08-08T21:32:52.147Z,3.10
2022-08-08T21:36:16.799Z,3.30
2022-08-08T21:38:16.300Z,3.60
2022-08-08T21:40:56.002Z,3.30
2022-08-08T21:43:32.868Z,3.70
2022-08-08T21:48:00.446Z,3.50
2022-08-08T21:48:53.245Z,4.00
2022-08-08T21:54:17.272Z,3.10
2022-08-08T21:54:36.543Z,3.30
2022-08-08T21:57:01.627Z,3.50
2022-08-08T22:00:01.460Z,3.40
2022-08-08T22:02:19.565Z,3.20
2022-08-08T22:04:52.664Z,3.40
2022-08-08T22:07:20.748Z,3.40
2022-08-08T22:09:55.610Z,3.40
2022-08-08T22:12:29.896Z,3.30
2022-08-08T22:14:58.735Z,3.40
2022-08-08T22:17:27.201Z,3.10
2022-08-08T22:20:12.445Z,3.40
2022-08-08T22:22:43.022Z,3.30
2022-08-08T22:25:25.018Z,3.40
2022-08-08T22:28:02.567Z,3.60
2022-08-08T22:30:33.533Z,3.60
2022-08-08T22:33:02.294Z,3.90
2022-08-08T22:36:05.430Z,3.10
2022-08-08T22:38:25.051Z,3.20
2022-08-08T22:40:53.514Z,3.40
2022-08-08T22:43:21.469Z,3.00
2022-08-08T22:45:52.535Z,3.30
2022-08-08T22:48:24.128Z,3.60
2022-08-08T22:50:52.944Z,3.50
2022-08-08T22:54:29.487Z,3.80
2022-08-08T22:56:09.882Z,3.30
2022-08-08T22:58:39.211Z,3.30
2022-08-08T23:01:26.761Z,3.40
2022-08-08T23:03:58.094Z,3.40
2022-08-08T23:06:26.603Z,3.10
2022-08-08T23:08:58.576Z,3.50
2022-08-08T23:12:17.896Z,3.50
2022-08-08T23:14:20.433Z,3.50
2022-08-08T23:16:54.904Z,3.40
2022-08-08T23:19:30.958Z,3.30
2022-08-08T23:22:02.099Z,3.70
2022-08-08T23:24:36.916Z,3.80
2022-08-08T23:27:10.614Z,3.50
2022-08-08T23:29:39.768Z,3.40
2022-08-08T23:32:10.504Z,3.80
2022-08-08T23:34:39.204Z,3.30
2022-08-08T23:37:17.756Z,3.40
2022-08-08T23:39:55.624Z,3.60
2022-08-08T23:42:26.042Z,3.80
2022-08-08T23:44:55.744Z,3.40
2022-08-08T23:48:59.930Z,3.50
2022-08-08T23:50:30.107Z,3.70
2022-08-08T23:52:58.996Z,3.20
2022-08-08T23:55:32.135Z,3.30
2022-08-08T23:58:01.620Z,3.50
